Time;durP1;ratioP1;P1;durP2;ratioP2;P2;SDS_P1;SDS_P2;PMS_P1;PMS_P2;Temp;Humidity;BMP_temperature;BMP_pressure;BME280_temperature;BME280_humidity;BME280_pressure;Samples;Min_cycle;Max_cycle;Signal;HPM_P1;HPM_P2
2021/03/19 00:01:02;;;;;;;18.65;8.63;;;;;;;-0.32;100.00;101839.72;6172759;28;20057;-70
2021/03/19 00:04:04;;;;;;;20.55;8.60;;;;;;;-0.36;100.00;101839.69;6173910;28;20051;-70
2021/03/19 00:07:04;;;;;;;16.67;8.32;;;;;;;-0.39;100.00;101845.66;6173045;28;20050;-70
2021/03/19 00:10:08;;;;;;;16.52;8.07;;;;;;;-0.34;100.00;101846.56;6170917;28;20138;-70
2021/03/19 00:13:10;;;;;;;23.00;8.02;;;;;;;-0.31;100.00;101846.63;6172266;28;20503;-69
2021/03/19 00:16:11;;;;;;;18.40;7.28;;;;;;;-0.33;100.00;101845.72;6173620;28;20105;-70
2021/03/19 00:19:12;;;;;;;16.10;7.50;;;;;;;-0.29;100.00;101850.06;6173695;28;20526;-70
2021/03/19 00:22:12;;;;;;;16.42;7.00;;;;;;;-0.24;100.00;101846.66;6173423;28;20046;-70
2021/03/19 00:25:14;;;;;;;18.45;7.85;;;;;;;-0.24;100.00;101846.66;6173638;28;20072;-70
2021/03/19 00:28:15;;;;;;;15.45;6.70;;;;;;;-0.21;100.00;101846.69;6173710;28;20636;-70
2021/03/19 00:31:16;;;;;;;18.50;7.18;;;;;;;-0.20;100.00;101848.41;6173299;28;20519;-70
2021/03/19 00:34:17;;;;;;;13.93;6.65;;;;;;;-0.26;100.00;101846.66;6172934;28;20057;-70
2021/03/19 00:37:18;;;;;;;16.40;6.95;;;;;;;-0.27;100.00;101845.78;6173104;28;20053;-70
2021/03/19 00:40:21;;;;;;;13.93;7.63;;;;;;;-0.27;100.00;101840.63;6171851;28;20113;-70
2021/03/19 00:43:22;;;;;;;17.75;7.88;;;;;;;-0.28;100.00;101844.03;6173063;28;20043;-70
2021/03/19 00:46:22;;;;;;;19.10;7.57;;;;;;;-0.29;100.00;101844.91;6173398;28;20574;-70
2021/03/19 00:49:23;;;;;;;18.95;7.55;;;;;;;-0.28;100.00;101840.59;6173411;28;20185;-70
2021/03/19 00:52:24;;;;;;;18.17;7.47;;;;;;;-0.28;100.00;101846.63;6173233;28;20053;-70
2021/03/19 00:55:26;;;;;;;18.45;7.25;;;;;;;-0.28;100.00;101851.78;6173252;28;20054;-70
2021/03/19 00:58:27;;;;;;;19.80;8.45;;;;;;;-0.32;100.00;101852.63;6173344;28;20054;-70
2021/03/19 01:01:28;;;;;;;16.58;7.47;;;;;;;-0.28;100.00;101858.66;6172912;28;20416;-70
2021/03/19 01:04:29;;;;;;;19.67;7.78;;;;;;;-0.33;100.00;101855.19;6173300;28;20090;-70
2021/03/19 01:07:30;;;;;;;17.30;7.07;;;;;;;-0.34;100.00;101856.03;6173196;28;20062;-70
2021/03/19 01:10:35;;;;;;;17.48;7.28;;;;;;;-0.35;100.00;101864.66;6172912;28;20055;-70
2021/03/19 01:13:36;;;;;;;13.23;6.70;;;;;;;-0.33;100.00;101871.53;6172987;28;20051;-70
2021/03/19 01:16:37;;;;;;;14.55;7.35;;;;;;;-0.36;100.00;101871.53;6172899;28;20066;-70
2021/03/19 01:19:38;;;;;;;12.88;7.03;;;;;;;-0.35;100.00;101868.09;6173197;28;20515;-70
2021/03/19 01:22:39;;;;;;;15.23;6.45;;;;;;;-0.35;100.00;101875.84;6175952;28;20456;-70
2021/03/19 01:25:41;;;;;;;15.75;7.22;;;;;;;-0.44;100.00;101874.88;6177206;28;20443;-69
2021/03/19 01:28:43;;;;;;;14.38;7.07;;;;;;;-0.45;100.00;101874.03;6177345;28;20051;-70
2021/03/19 01:31:44;;;;;;;15.02;6.07;;;;;;;-0.38;100.00;101874.94;6177251;28;20069;-70
2021/03/19 01:34:45;;;;;;;13.75;6.93;;;;;;;-0.48;100.00;101867.97;6177228;28;20051;-70
2021/03/19 01:37:46;;;;;;;14.10;6.60;;;;;;;-0.49;100.00;101881.72;6177169;28;20147;-70
2021/03/19 01:40:49;;;;;;;18.50;6.13;;;;;;;-0.50;100.00;101886.00;6177008;28;20054;-70
2021/03/19 01:43:51;;;;;;;18.10;7.22;;;;;;;-0.53;100.00;101889.44;6176907;28;20500;-70
2021/03/19 01:47:29;;;;;;;16.17;7.55;;;;;;;-0.57;100.00;101895.41;6176998;28;20050;-70
2021/03/19 01:51:07;;;;;;;12.15;6.20;;;;;;;-0.60;100.00;101897.09;6177082;28;20051;-70
2021/03/19 01:54:41;;;;;;;11.13;5.57;;;;;;;-0.63;100.00;101895.34;6176680;28;20117;-70
2021/03/19 01:58:20;;;;;;;15.80;6.82;;;;;;;-0.66;100.00;101900.47;6144415;28;20463;-69
2021/03/19 02:01:58;;;;;;;13.52;6.32;;;;;;;-0.66;100.00;101897.88;6176364;28;20073;-69
2021/03/19 02:05:36;;;;;;;13.43;5.72;;;;;;;-0.70;100.00;101905.56;6176679;28;20057;-69
2021/03/19 02:09:23;;;;;;;16.23;6.03;;;;;;;-0.70;100.00;101905.56;6176496;28;20047;-70
2021/03/19 02:13:01;;;;;;;15.00;5.85;;;;;;;-0.77;100.00;101907.22;6141289;28;20046;-71
2021/03/19 02:16:39;;;;;;;13.75;5.65;;;;;;;-0.78;100.00;101910.63;6176421;28;20050;-69
2021/03/19 02:20:17;;;;;;;11.25;5.35;;;;;;;-0.81;100.00;101911.47;6176459;28;20050;-69
2021/03/19 02:23:55;;;;;;;14.00;6.10;;;;;;;-0.83;100.00;101908.00;6175829;28;20051;-71
2021/03/19 02:27:33;;;;;;;11.65;5.88;;;;;;;-0.89;100.00;101910.53;6174556;28;20141;-71
2021/03/19 02:31:11;;;;;;;11.10;5.43;;;;;;;-0.89;100.00;101915.69;6174898;28;20050;-69
2021/03/19 02:34:14;;;;;;;14.15;5.75;;;;;;;-0.89;100.00;101923.41;6174006;28;20152;-69
2021/03/19 02:37:19;;;;;;;12.43;5.05;;;;;;;-0.91;100.00;101919.06;6174662;28;20051;-69
2021/03/19 02:40:22;;;;;;;13.52;5.30;;;;;;;-0.91;100.00;101921.66;6174923;28;20117;-69
2021/03/19 02:43:25;;;;;;;9.77;4.80;;;;;;;-0.88;100.00;101926.88;6174184;28;20194;-69
2021/03/19 02:46:25;;;;;;;9.32;4.63;;;;;;;-0.90;100.00;101915.66;6174680;28;20051;-69
2021/03/19 02:49:28;;;;;;;9.35;4.85;;;;;;;-0.93;100.00;101921.66;6174407;28;20121;-69
2021/03/19 02:52:34;;;;;;;8.85;4.40;;;;;;;-0.90;100.00;101928.56;6174041;28;20061;-69
2021/03/19 02:55:34;;;;;;;12.88;3.97;;;;;;;-0.95;100.00;101938.84;6174389;28;20055;-69
2021/03/19 02:58:36;;;;;;;8.95;4.10;;;;;;;-0.98;100.00;101937.91;6174152;28;20054;-69
2021/03/19 03:01:37;;;;;;;8.48;4.28;;;;;;;-0.97;100.00;101949.97;6173875;28;20086;-69
2021/03/19 03:04:38;;;;;;;9.20;4.40;;;;;;;-0.96;100.00;101964.59;6173978;28;20053;-69
2021/03/19 03:07:39;;;;;;;9.23;4.15;;;;;;;-0.98;100.00;101948.25;6174219;28;20051;-69
2021/03/19 03:10:41;;;;;;;8.43;3.60;;;;;;;-0.95;100.00;101961.16;6173898;28;20051;-70
2021/03/19 03:13:42;;;;;;;8.38;3.65;;;;;;;-0.99;100.00;101954.25;6174238;28;20058;-69
2021/03/19 03:16:43;;;;;;;7.57;3.55;;;;;;;-0.98;100.00;101964.59;6173798;28;20050;-69
2021/03/19 03:19:45;;;;;;;7.32;3.90;;;;;;;-0.94;100.00;101970.66;6173379;28;20051;-69
2021/03/19 03:22:46;;;;;;;8.63;4.43;;;;;;;-0.98;99.88;101971.47;6173459;28;20101;-69
2021/03/19 03:25:48;;;;;;;10.40;4.00;;;;;;;-1.00;100.00;101981.72;6156021;28;523248;-69
2021/03/19 03:28:49;;;;;;;11.38;3.58;;;;;;;-1.00;100.00;101980.88;6174861;28;20055;-69
2021/03/19 03:31:50;;;;;;;8.02;3.67;;;;;;;-1.03;100.00;101982.56;6174261;28;20051;-69
2021/03/19 03:34:51;;;;;;;8.35;4.00;;;;;;;-1.05;100.00;101994.56;6174641;28;20054;-69
2021/03/19 03:37:53;;;;;;;7.05;3.55;;;;;;;-1.08;100.00;101991.09;6174410;28;20566;-69
2021/03/19 03:40:56;;;;;;;8.13;3.85;;;;;;;-1.09;100.00;101991.91;6174369;28;20054;-69
2021/03/19 03:43:57;;;;;;;5.88;3.45;;;;;;;-1.16;100.00;101984.97;6174257;28;20054;-69
2021/03/19 03:46:59;;;;;;;8.38;3.72;;;;;;;-1.13;100.00;101990.16;6174483;28;20051;-69
2021/03/19 03:50:06;;;;;;;11.15;3.63;;;;;;;-1.14;100.00;101996.16;6189703;28;20495;-69
2021/03/19 03:53:10;;;;;;;11.30;3.67;;;;;;;-1.11;100.00;101998.78;6187743;28;20051;-69
2021/03/19 03:56:12;;;;;;;7.80;3.80;;;;;;;-1.16;100.00;101998.72;6196728;28;20081;-69
2021/03/19 03:59:13;;;;;;;10.15;3.40;;;;;;;-1.19;100.00;102003.81;6198156;28;20410;-69
2021/03/19 04:02:18;;;;;;;10.50;3.90;;;;;;;-1.18;100.00;102002.09;6198041;28;20050;-69
2021/03/19 04:05:23;;;;;;;7.93;3.85;;;;;;;-1.15;100.00;101997.88;6197935;28;20048;-69
2021/03/19 04:08:26;;;;;;;6.60;3.38;;;;;;;-1.20;100.00;102003.81;6198213;28;20042;-69
2021/03/19 04:11:27;;;;;;;9.38;3.67;;;;;;;-1.26;100.00;101993.41;6197572;28;20046;-69
2021/03/19 04:14:28;;;;;;;15.43;4.35;;;;;;;-1.30;100.00;101995.94;6197771;28;20561;-69
2021/03/19 04:17:31;;;;;;;6.60;4.03;;;;;;;-1.34;100.00;102001.00;6189582;28;20090;-69
2021/03/19 04:20:34;;;;;;;11.68;4.28;;;;;;;-1.38;100.00;102007.81;6198006;28;20050;-69
2021/03/19 04:23:37;;;;;;;9.32;4.65;;;;;;;-1.40;100.00;102017.25;6197466;28;20046;-69
2021/03/19 04:26:37;;;;;;;10.05;4.22;;;;;;;-1.45;100.00;102021.47;6197594;28;20050;-69
2021/03/19 04:29:38;;;;;;;7.63;3.72;;;;;;;-1.44;100.00;102023.22;6197762;28;20125;-68
2021/03/19 04:32:39;;;;;;;9.85;3.78;;;;;;;-1.42;100.00;102029.25;6197629;28;20051;-68
2021/03/19 04:35:42;;;;;;;7.82;4.35;;;;;;;-1.42;100.00;102025.78;6197693;28;20534;-68
2021/03/19 04:38:44;;;;;;;6.88;4.00;;;;;;;-1.43;100.00;102029.22;6197478;28;20042;-69
2021/03/19 04:41:48;;;;;;;10.35;5.03;;;;;;;-1.43;100.00;102030.09;6197299;28;20080;-68
2021/03/19 04:44:49;;;;;;;9.85;4.40;;;;;;;-1.42;100.00;102031.81;6197354;28;20054;-68
2021/03/19 04:47:52;;;;;;;9.82;5.07;;;;;;;-1.44;100.00;102037.81;6197677;28;20050;-69
2021/03/19 04:50:54;;;;;;;20.00;6.22;;;;;;;-1.46;100.00;102044.63;6197161;28;20577;-69
2021/03/19 04:53:56;;;;;;;13.10;5.43;;;;;;;-1.49;100.00;102050.63;6197533;28;20050;-69
2021/03/19 04:56:58;;;;;;;15.00;5.57;;;;;;;-1.50;100.00;102048.00;6199804;28;20050;-69
2021/03/19 04:59:59;;;;;;;15.23;5.35;;;;;;;-1.44;100.00;102046.41;6202247;28;20050;-69
2021/03/19 05:03:00;;;;;;;7.43;4.32;;;;;;;-1.52;100.00;102041.97;6201935;28;20053;-68
2021/03/19 05:06:02;;;;;;;9.73;4.97;;;;;;;-1.51;100.00;102049.72;6202106;28;20134;-70
2021/03/19 05:09:03;;;;;;;7.97;4.45;;;;;;;-1.55;100.00;102046.22;6202093;28;20050;-70
2021/03/19 05:12:05;;;;;;;7.53;4.18;;;;;;;-1.56;100.00;102049.63;6201607;28;20077;-69
2021/03/19 05:15:08;;;;;;;7.00;4.10;;;;;;;-1.55;100.00;102050.50;6201977;28;20129;-69
2021/03/19 05:18:09;;;;;;;10.00;4.40;;;;;;;-1.56;100.00;102054.78;6201589;28;20054;-69
2021/03/19 05:21:11;;;;;;;7.57;4.88;;;;;;;-1.57;100.00;102049.63;6201471;28;20046;-70
2021/03/19 05:24:12;;;;;;;9.32;5.20;;;;;;;-1.55;100.00;102055.66;6201344;28;20057;-70
2021/03/19 05:27:13;;;;;;;10.00;5.22;;;;;;;-1.58;100.00;102060.78;6201684;28;20511;-69
2021/03/19 05:30:15;;;;;;;11.05;4.80;;;;;;;-1.63;100.00;102065.84;6201556;28;20050;-69
2021/03/19 05:33:16;;;;;;;6.15;4.20;;;;;;;-1.63;100.00;102071.00;6192491;28;20492;-69
2021/03/19 05:36:22;;;;;;;8.65;4.60;;;;;;;-1.60;100.00;102071.03;6190061;28;20057;-69
2021/03/19 05:39:22;;;;;;;9.63;5.53;;;;;;;-1.60;100.00;102073.63;6201029;28;20113;-69
2021/03/19 05:42:27;;;;;;;9.95;5.80;;;;;;;-1.58;100.00;102081.38;6196096;28;20089;-69
2021/03/19 05:45:30;;;;;;;11.52;6.30;;;;;;;-1.42;100.00;102077.34;6188424;28;20054;-76
2021/03/19 05:48:39;;;;;;;13.95;5.78;;;;;;;-1.48;100.00;102072.09;6188580;28;20484;-76
2021/03/19 05:51:44;;;;;;;11.38;5.65;;;;;;;-1.50;100.00;102073.78;6179415;28;20054;-76
2021/03/19 05:54:47;;;;;;;11.68;5.45;;;;;;;-1.52;100.00;102067.75;6193371;28;20057;-76
2021/03/19 05:57:49;;;;;;;10.30;5.78;;;;;;;-1.50;100.00;102068.63;6200894;28;20553;-76
2021/03/19 06:00:54;;;;;;;11.63;5.03;;;;;;;-1.39;100.00;102072.28;6200658;28;20061;-76
2021/03/19 06:03:57;;;;;;;15.77;5.00;;;;;;;-1.46;100.00;102073.84;6200726;28;20058;-77
2021/03/19 06:07:02;;;;;;;9.07;5.47;;;;;;;-1.45;100.00;102085.94;6200171;28;20435;-76
2021/03/19 06:10:20;;;;;;;8.88;5.65;;;;;;;-1.48;100.00;102085.88;6199932;28;20057;-76
2021/03/19 06:13:25;;;;;;;10.50;5.30;;;;;;;-1.33;100.00;102090.41;6200542;28;20092;-76
2021/03/19 06:16:34;;;;;;;13.60;5.13;;;;;;;-1.19;100.00;102103.53;6200376;28;20054;-76
2021/03/19 06:19:38;;;;;;;10.15;4.70;;;;;;;-1.26;99.17;102100.00;6200553;28;20050;-76
2021/03/19 06:22:46;;;;;;;11.48;4.43;;;;;;;-1.18;98.15;102111.31;6200087;28;20053;-76
2021/03/19 06:26:00;;;;;;;11.27;4.43;;;;;;;-1.22;98.59;102112.09;6200240;28;20073;-76
2021/03/19 06:29:10;;;;;;;9.85;4.32;;;;;;;-1.19;98.36;102119.88;6200203;28;20047;-76
2021/03/19 06:32:26;;;;;;;7.75;4.57;;;;;;;-1.18;98.79;102129.38;6199937;28;20046;-76
2021/03/19 06:35:32;;;;;;;10.23;4.72;;;;;;;-1.15;99.09;102128.53;6200273;28;20074;-76
2021/03/19 06:38:36;;;;;;;6.25;4.00;;;;;;;-1.16;98.42;102129.38;6200095;28;20100;-77
2021/03/19 06:41:38;;;;;;;7.72;4.03;;;;;;;-1.02;97.41;102138.22;6199451;28;20076;-76
2021/03/19 06:44:40;;;;;;;9.05;3.92;;;;;;;-1.12;98.97;102139.78;6200025;28;20058;-76
2021/03/19 06:47:44;;;;;;;9.80;4.55;;;;;;;-1.07;100.00;102139.88;6199662;28;20416;-76
2021/03/19 06:50:45;;;;;;;9.60;4.53;;;;;;;-1.04;100.00;102139.94;6199753;28;20109;-76
2021/03/19 06:53:55;;;;;;;14.43;6.68;;;;;;;-1.03;100.00;102139.06;6199606;28;20098;-77
2021/03/19 06:57:02;;;;;;;7.38;4.80;;;;;;;-0.85;100.00;102141.94;6199763;28;20108;-76
2021/03/19 07:00:05;;;;;;;8.88;4.03;;;;;;;-0.92;99.06;102137.53;6199391;28;20062;-76
2021/03/19 07:03:21;;;;;;;6.32;3.97;;;;;;;-0.92;99.47;102142.69;6199138;28;20094;-76
2021/03/19 07:06:34;;;;;;;12.20;4.38;;;;;;;-0.84;100.00;102159.16;6199211;28;20054;-77
2021/03/19 07:09:47;;;;;;;8.50;3.70;;;;;;;-0.71;99.20;102157.66;6199399;28;20500;-77
2021/03/19 07:12:54;;;;;;;7.93;3.58;;;;;;;-0.73;99.12;102159.31;6198869;28;20523;-76
2021/03/19 07:16:05;;;;;;;7.82;4.28;;;;;;;-0.61;97.92;102156.09;6199132;28;20054;-76
2021/03/19 07:19:16;;;;;;;10.90;4.13;;;;;;;-0.60;98.57;102161.25;6198672;28;20081;-76
2021/03/19 07:22:34;;;;;;;7.10;4.30;;;;;;;-0.49;99.13;102174.34;6198792;28;20057;-76
2021/03/19 07:26:13;;;;;;;10.80;3.90;;;;;;;-0.39;97.85;102185.69;6198864;28;20100;-77
2021/03/19 07:29:32;;;;;;;8.70;3.83;;;;;;;-0.32;97.38;102190.97;6193802;28;20054;-77
2021/03/19 07:32:40;;;;;;;7.25;4.05;;;;;;;-0.24;97.75;102182.44;6198665;28;20050;-75
2021/03/19 07:35:59;;;;;;;7.18;4.03;;;;;;;-0.10;96.87;102178.34;6198430;28;20046;-76
2021/03/19 07:39:27;;;;;;;9.32;3.88;;;;;;;-0.03;96.40;102175.88;6198325;28;20047;-77
2021/03/19 07:42:52;;;;;;;6.25;4.07;;;;;;;0.11;95.98;102190.69;6196205;28;20568;-76
2021/03/19 07:46:13;;;;;;;7.57;3.85;;;;;;;0.18;95.60;102192.47;6194516;28;20054;-76
2021/03/19 07:49:29;;;;;;;6.13;3.88;;;;;;;0.15;96.42;102197.63;6198471;28;20529;-76
2021/03/19 07:52:45;;;;;;;16.95;5.93;;;;;;;0.18;96.80;102201.13;6198054;28;20073;-76
2021/03/19 07:55:56;;;;;;;12.95;4.40;;;;;;;0.55;95.67;102192.94;6192429;28;20050;-75
2021/03/19 07:59:05;;;;;;;12.07;4.43;;;;;;;0.50;94.61;102203.25;6182218;28;20047;-76
2021/03/19 08:02:36;;;;;;;6.88;4.32;;;;;;;0.53;94.88;102192.91;6196674;28;20061;-76
2021/03/19 08:05:42;;;;;;;10.93;4.38;;;;;;;0.61;93.30;102201.63;6189745;28;20054;-76
2021/03/19 08:08:48;;;;;;;11.73;3.90;;;;;;;0.57;94.16;102196.41;6189524;28;20511;-77
2021/03/19 08:11:53;;;;;;;7.47;3.88;;;;;;;0.41;94.99;102195.34;6184266;28;20047;-78
2021/03/19 08:15:05;;;;;;;8.30;4.10;;;;;;;0.46;94.99;102201.47;6173625;28;20062;-76
2021/03/19 08:18:16;;;;;;;12.88;4.50;;;;;;;0.42;96.26;102199.69;6173655;28;20479;-76
2021/03/19 08:21:24;;;;;;;6.50;4.00;;;;;;;0.64;94.66;102206.84;6172840;28;20054;-76
2021/03/19 08:24:43;;;;;;;9.60;4.15;;;;;;;0.64;95.11;102206.84;6173383;28;20487;-77
2021/03/19 08:27:52;;;;;;;10.18;4.45;;;;;;;0.74;95.01;102203.50;6173416;28;20047;-76
2021/03/19 08:31:01;;;;;;;9.00;4.00;;;;;;;0.76;95.39;102196.59;6172271;28;20058;-76
2021/03/19 08:34:16;;;;;;;;;;;;;;;0.87;95.87;102220.03;6189265;28;20050;-75
2021/03/19 08:37:30;;;;;;;10.00;4.00;;;;;;;0.85;95.52;102213.94;6182920;28;19930;-75
2021/03/19 08:40:36;;;;;;;11.77;4.20;;;;;;;0.95;95.18;102220.09;6182006;28;20411;-73
2021/03/19 08:43:42;;;;;;;6.43;3.28;;;;;;;1.18;93.94;102221.19;6194174;28;20054;-74
2021/03/19 08:46:47;;;;;;;6.47;3.60;;;;;;;1.32;93.39;102229.09;6185638;28;20053;-73
2021/03/19 08:49:54;;;;;;;12.15;4.32;;;;;;;1.43;93.96;102235.22;6184554;28;20526;-74
2021/03/19 08:53:14;;;;;;;8.60;3.13;;;;;;;1.61;93.72;102238.81;6179283;28;20046;-76
2021/03/19 08:56:29;;;;;;;5.85;3.65;;;;;;;1.75;92.02;102242.38;6197121;28;20051;-74
2021/03/19 08:59:48;;;;;;;8.38;3.90;;;;;;;1.91;92.02;102246.81;6197130;28;20054;-75
2021/03/19 09:02:53;;;;;;;8.15;3.78;;;;;;;1.86;91.58;102251.06;6189300;28;20047;-74
2021/03/19 09:06:11;;;;;;;7.38;3.47;;;;;;;1.86;92.52;102243.28;6173022;28;20053;-74
2021/03/19 09:09:38;;;;;;;9.48;4.32;;;;;;;2.02;92.95;102247.72;6173297;28;20117;-74
2021/03/19 09:13:13;;;;;;;8.00;4.57;;;;;;;2.38;91.30;102255.72;6196462;28;20058;-75
2021/03/19 09:16:44;;;;;;;9.18;3.47;;;;;;;2.60;91.42;102249.75;6178323;28;20058;-75
2021/03/19 09:20:12;;;;;;;8.32;3.85;;;;;;;2.80;88.79;102257.59;6172448;28;20055;-74
2021/03/19 09:23:24;;;;;;;5.30;3.10;;;;;;;3.02;88.27;102262.00;6172068;28;20043;-74
2021/03/19 09:26:51;;;;;;;8.57;3.72;;;;;;;3.05;88.13;102254.22;6172629;28;20058;-74
2021/03/19 09:30:07;;;;;;;6.00;2.78;;;;;;;3.37;85.97;102248.19;6172609;28;20061;-75
2021/03/19 09:33:12;;;;;;;5.78;2.80;;;;;;;3.47;84.29;102260.31;6172276;28;20053;-75
2021/03/19 09:36:46;;;;;;;7.25;3.50;;;;;;;3.65;83.88;102253.38;6172480;28;20050;-76
2021/03/19 09:40:37;;;;;;;5.30;3.08;;;;;;;3.89;80.82;102252.50;6172709;28;20054;-75
2021/03/19 09:43:45;;;;;;;10.63;3.00;;;;;;;3.75;81.31;102255.97;6184747;28;20049;-75
2021/03/19 09:46:46;;;;;;;7.28;3.00;;;;;;;3.94;82.41;102250.75;6194763;28;20050;-76
2021/03/19 09:49:47;;;;;;;6.63;2.78;;;;;;;3.89;81.21;102260.28;6198555;28;20499;-76
2021/03/19 09:52:57;;;;;;;11.68;3.10;;;;;;;3.88;80.16;102261.16;6191894;28;20065;-73
2021/03/19 09:56:00;;;;;;;14.63;3.47;;;;;;;3.90;83.71;102260.28;6200628;28;20061;-75
2021/03/19 09:59:19;;;;;;;8.00;3.28;;;;;;;4.00;82.62;102261.16;6200393;28;20548;-75
2021/03/19 10:02:24;;;;;;;19.60;4.28;;;;;;;4.16;81.27;102257.63;6196515;28;20066;-74
2021/03/19 10:05:34;;;;;;;5.47;2.75;;;;;;;4.10;82.75;102257.66;6183281;28;20050;-76
2021/03/19 10:08:35;;;;;;;11.32;3.17;;;;;;;4.32;80.08;102255.88;6192023;28;20423;-75
2021/03/19 10:12:06;;;;;;;9.77;3.20;;;;;;;4.31;81.53;102256.72;6199607;28;20090;-75
2021/03/19 10:15:13;;;;;;;10.30;3.70;;;;;;;4.32;82.49;102266.28;6200333;28;20535;-74
2021/03/19 10:18:26;;;;;;;10.38;3.40;;;;;;;4.43;82.22;102266.25;6200094;28;20507;-75
2021/03/19 10:21:40;;;;;;;7.63;3.25;;;;;;;4.56;83.53;102267.94;6199785;28;20061;-74
2021/03/19 10:24:41;;;;;;;5.40;2.90;;;;;;;4.64;81.50;102273.97;6200118;28;20047;-74
2021/03/19 10:27:45;;;;;;;6.28;3.35;;;;;;;4.62;82.75;102272.25;6200180;28;20138;-73
2021/03/19 10:30:50;;;;;;;8.65;3.42;;;;;;;4.87;78.63;102265.19;6195340;28;20058;-74
2021/03/19 10:33:59;;;;;;;7.88;3.22;;;;;;;4.69;77.90;102266.16;6180081;28;20042;-74
2021/03/19 10:37:06;;;;;;;9.65;3.28;;;;;;;4.50;79.39;102270.56;6175570;28;20452;-73
2021/03/19 10:40:14;;;;;;;11.05;3.75;;;;;;;4.40;80.31;102269.69;6187192;28;20507;-72
2021/03/19 10:43:19;;;;;;;5.45;3.45;;;;;;;4.26;81.68;102272.34;6198878;28;20404;-74
2021/03/19 10:46:27;;;;;;;7.97;3.67;;;;;;;4.26;81.53;102274.09;6175317;28;20102;-72
2021/03/19 10:49:43;;;;;;;8.40;3.35;;;;;;;4.25;82.08;102269.75;6186767;28;20116;-73
2021/03/19 10:52:48;;;;;;;8.05;3.78;;;;;;;4.37;83.98;102281.88;6198861;28;20046;-73
2021/03/19 10:55:51;;;;;;;7.90;3.15;;;;;;;4.63;81.06;102279.16;6198909;28;20053;-73
2021/03/19 10:59:07;;;;;;;9.30;3.10;;;;;;;4.79;78.37;102279.09;6199348;28;20057;-73
2021/03/19 11:02:18;;;;;;;9.02;4.00;;;;;;;4.96;78.49;102288.59;6198546;28;20050;-73
2021/03/19 11:05:20;;;;;;;7.55;3.10;;;;;;;4.98;78.54;102279.00;6198684;28;20050;-73
2021/03/19 11:08:20;;;;;;;6.10;2.55;;;;;;;5.21;78.01;102276.25;6199293;28;20101;-73
2021/03/19 11:11:30;;;;;;;7.22;3.17;;;;;;;5.42;75.79;102277.88;6198428;28;20061;-73
2021/03/19 11:14:32;;;;;;;5.10;2.70;;;;;;;5.62;73.11;102283.78;6198659;28;20431;-73
2021/03/19 11:17:33;;;;;;;7.20;3.38;;;;;;;5.98;75.11;102276.53;6198978;28;20051;-74
2021/03/19 11:20:36;;;;;;;5.13;2.75;;;;;;;5.74;73.07;102275.00;6198743;28;20423;-73
2021/03/19 11:23:39;;;;;;;7.25;3.45;;;;;;;5.83;72.70;102282.75;6195980;28;20129;-73
2021/03/19 11:26:41;;;;;;;10.00;3.00;;;;;;;5.83;74.65;102278.38;6197634;28;20054;-73
2021/03/19 11:29:44;;;;;;;6.00;2.80;;;;;;;6.01;72.85;102280.00;6199284;28;20073;-74
2021/03/19 11:32:44;;;;;;;9.18;3.33;;;;;;;6.14;68.31;102280.75;6198340;28;20054;-75
2021/03/19 11:36:04;;;;;;;5.15;2.88;;;;;;;5.96;68.44;102291.38;6198945;28;20165;-75
2021/03/19 11:39:12;;;;;;;;;;;;;;;5.96;68.58;102288.75;6198884;28;20050;-73
2021/03/19 11:42:15;;;;;;;8.20;2.90;;;;;;;6.29;69.48;102282.31;6198147;28;20370;-74
2021/03/19 11:45:19;;;;;;;5.53;2.15;;;;;;;6.48;66.44;102282.97;6182270;28;20051;-68
2021/03/19 11:48:27;;;;;;;7.38;2.58;;;;;;;6.51;64.34;102283.81;6176580;28;20054;-68
2021/03/19 11:51:31;;;;;;;6.53;3.17;;;;;;;6.48;63.71;102276.00;6198069;28;20057;-68
2021/03/19 11:54:32;;;;;;;6.10;2.53;;;;;;;6.70;62.38;102280.97;6198321;28;20049;-68
2021/03/19 11:57:32;;;;;;;4.80;1.73;;;;;;;6.50;62.03;102281.22;6198293;28;20054;-68
2021/03/19 12:00:37;;;;;;;5.00;2.25;;;;;;;6.77;65.19;102293.09;6198284;28;20060;-68
2021/03/19 12:03:44;;;;;;;14.95;6.00;;;;;;;7.40;62.32;102292.19;6197901;28;20046;-68
2021/03/19 12:06:46;;;;;;;5.20;2.92;;;;;;;7.27;61.91;102283.69;6197303;28;20066;-67
2021/03/19 12:09:48;;;;;;;5.15;2.22;;;;;;;6.69;64.29;102292.31;6198144;28;20055;-67
2021/03/19 12:12:49;;;;;;;4.47;1.60;;;;;;;6.88;62.26;102292.94;6197858;28;20062;-67
2021/03/19 12:15:51;;;;;;;7.40;2.35;;;;;;;7.00;62.12;102293.66;6197817;28;20050;-69
2021/03/19 12:18:52;;;;;;;5.10;2.10;;;;;;;7.38;63.98;102300.06;6197830;28;20088;-69
2021/03/19 12:21:53;;;;;;;4.65;1.67;;;;;;;7.96;59.97;102295.66;6195816;28;20058;-68
2021/03/19 12:24:54;;;;;;;4.72;1.90;;;;;;;8.04;56.30;102305.09;6197296;28;20069;-68
2021/03/19 12:27:55;;;;;;;4.32;1.45;;;;;;;7.21;59.97;102300.31;6197347;28;20074;-69
2021/03/19 12:30:59;;;;;;;7.40;1.67;;;;;;;7.52;61.55;102305.94;6196823;28;20093;-68
2021/03/19 12:34:00;;;;;;;2.45;1.67;;;;;;;8.30;58.19;102295.88;6197518;28;20057;-68
2021/03/19 12:37:01;;;;;;;3.85;1.60;;;;;;;8.61;59.70;102296.19;6197157;28;20058;-69
2021/03/19 12:40:04;;;;;;;6.32;1.52;;;;;;;8.11;58.16;102309.31;6197704;28;20097;-68
2021/03/19 12:43:06;;;;;;;3.85;1.40;;;;;;;7.51;55.70;102305.97;6196633;28;20050;-68
2021/03/19 12:46:08;;;;;;;3.35;1.42;;;;;;;6.86;60.13;102299.06;6197145;28;20097;-68
2021/03/19 12:49:09;;;;;;;5.75;1.80;;;;;;;6.91;59.59;102311.22;6197179;28;20050;-68
2021/03/19 12:52:10;;;;;;;4.57;1.60;;;;;;;6.93;62.90;102314.66;6196537;28;20043;-69
2021/03/19 12:55:12;;;;;;;3.88;1.50;;;;;;;7.63;60.36;102309.28;6180739;28;20055;-68
2021/03/19 12:58:13;;;;;;;2.53;1.33;;;;;;;8.04;57.76;102314.69;6172953;28;20058;-68
2021/03/19 13:01:20;;;;;;;5.97;1.45;;;;;;;7.98;57.21;102309.56;6172531;28;20051;-68
2021/03/19 13:04:21;;;;;;;5.20;1.40;;;;;;;7.49;58.81;102305.97;6172764;28;20162;-68
2021/03/19 13:07:22;;;;;;;5.85;1.70;;;;;;;7.40;61.34;102303.50;6173357;28;20157;-68
2021/03/19 13:10:27;;;;;;;3.60;1.90;;;;;;;7.43;57.09;102300.84;6172808;28;20097;-68
2021/03/19 13:13:28;;;;;;;10.48;2.80;;;;;;;7.24;56.85;102307.25;6172093;28;20051;-68
2021/03/19 13:16:29;;;;;;;3.92;1.60;;;;;;;7.19;50.57;102301.22;6172892;28;20491;-69
2021/03/19 13:19:30;;;;;;;2.72;1.40;;;;;;;7.02;52.62;102302.31;6177462;28;20517;-68
2021/03/19 13:22:31;;;;;;;6.88;1.98;;;;;;;6.89;53.22;102299.88;6176847;28;20047;-69
2021/03/19 13:25:35;;;;;;;2.58;1.38;;;;;;;6.82;56.89;102291.28;6178077;28;20061;-69
2021/03/19 13:28:36;;;;;;;3.70;1.20;;;;;;;7.11;52.43;102293.50;6200406;28;20051;-68
2021/03/19 13:31:39;;;;;;;2.28;0.95;;;;;;;7.14;54.48;102295.22;6192239;28;20430;-69
2021/03/19 13:34:41;;;;;;;4.18;1.20;;;;;;;7.04;56.60;102295.34;6193214;28;20078;-68
2021/03/19 13:37:42;;;;;;;2.63;1.10;;;;;;;6.97;57.19;102295.44;6201044;28;20050;-68
2021/03/19 13:40:47;;;;;;;5.38;1.67;;;;;;;6.91;57.24;102295.53;6200515;28;20046;-68
2021/03/19 13:43:48;;;;;;;4.82;1.33;;;;;;;6.69;56.51;102297.53;6200894;28;20046;-68
2021/03/19 13:46:50;;;;;;;2.72;1.10;;;;;;;6.65;55.44;102306.28;6197527;28;20076;-68
2021/03/19 13:49:51;;;;;;;1.75;1.00;;;;;;;7.05;56.79;102298.81;6196608;28;20054;-68
2021/03/19 13:52:53;;;;;;;2.78;0.90;;;;;;;8.00;55.06;102307.78;6199743;28;20046;-68
2021/03/19 13:55:55;;;;;;;2.30;0.82;;;;;;;8.42;53.34;102300.06;6199725;28;20046;-69
2021/03/19 13:59:00;;;;;;;3.05;0.90;;;;;;;8.10;53.17;102296.25;6200672;28;20046;-68
2021/03/19 14:02:02;;;;;;;2.00;0.80;;;;;;;8.14;53.81;102296.19;6199985;28;20050;-68
2021/03/19 14:05:03;;;;;;;2.05;1.00;;;;;;;8.60;54.84;102291.84;6199824;28;20135;-72
2021/03/19 14:08:07;;;;;;;3.53;1.27;;;;;;;9.09;53.46;102286.41;6192486;28;20100;-68
2021/03/19 14:11:10;;;;;;;2.22;0.70;;;;;;;9.77;49.25;102282.19;6199580;28;20054;-69
2021/03/19 14:14:12;;;;;;;4.63;1.20;;;;;;;9.19;50.87;102287.06;6200354;28;20050;-72
2021/03/19 14:17:13;;;;;;;1.77;1.00;;;;;;;9.09;50.63;102281.19;6200319;28;20061;-67
2021/03/19 14:20:22;;;;;;;1.42;0.90;;;;;;;9.24;49.96;102295.69;6192138;28;20514;-68
2021/03/19 14:23:26;;;;;;;2.80;0.90;;;;;;;9.06;48.29;102288.25;6199501;28;20129;-66
2021/03/19 14:26:26;;;;;;;1.75;0.90;;;;;;;8.59;50.14;102297.97;6200001;28;20054;-67